Time;durP1;ratioP1;P1;durP2;ratioP2;P2;SDS_P1;SDS_P2;PMS_P1;PMS_P2;Temp;Humidity;BMP_temperature;BMP_pressure;BME280_temperature;BME280_humidity;BME280_pressure;Samples;Min_cycle;Max_cycle;Signal;HPM_P1;HPM_P2
2022/01/03 00:00:46;;;;;;;20.92;3.70;;;;;;;8.93;100.00;101019.31;5263473;28;20116;-71
2022/01/03 00:03:19;;;;;;;28.48;4.50;;;;;;;8.92;100.00;101015.81;5257816;28;20174;-72
2022/01/03 00:05:51;;;;;;;25.25;4.50;;;;;;;8.82;100.00;101018.25;5258208;28;20063;-71
2022/01/03 00:08:22;;;;;;;21.45;4.40;;;;;;;8.85;100.00;101027.81;5256255;28;20035;-71
2022/01/03 00:10:55;;;;;;;25.85;4.47;;;;;;;8.89;100.00;101023.16;5259126;28;20045;-71
2022/01/03 00:13:27;;;;;;;19.88;4.63;;;;;;;8.94;100.00;101027.22;5264908;28;20020;-71
2022/01/03 00:15:58;;;;;;;21.70;4.43;;;;;;;8.90;100.00;101033.69;5265937;28;20029;-71
2022/01/03 00:18:29;;;;;;;23.33;4.28;;;;;;;8.85;100.00;101032.28;5263130;28;20025;-72
2022/01/03 00:21:01;;;;;;;21.77;4.25;;;;;;;8.83;100.00;101045.69;5265466;28;20034;-71
2022/01/03 00:23:38;;;;;;;26.77;4.85;;;;;;;8.87;100.00;101035.69;5267645;28;20037;-71
2022/01/03 00:26:12;;;;;;;18.60;4.70;;;;;;;8.89;100.00;101044.44;5263021;28;20101;-71
2022/01/03 00:29:13;;;;;;;22.70;4.53;;;;;;;8.88;100.00;101048.91;5265241;28;20060;-71
2022/01/03 00:31:45;;;;;;;24.65;5.20;;;;;;;8.87;100.00;101051.66;5262348;28;20618;-71
2022/01/03 00:34:16;;;;;;;28.40;5.43;;;;;;;8.90;100.00;101049.66;5265121;28;20107;-71
2022/01/03 00:36:51;;;;;;;20.58;5.18;;;;;;;8.96;100.00;101043.09;5265288;28;20036;-71
2022/01/03 00:39:22;;;;;;;21.00;4.80;;;;;;;8.98;100.00;101050.00;5260974;28;20056;-71
2022/01/03 00:41:53;;;;;;;22.35;5.30;;;;;;;9.00;100.00;101042.75;5270680;28;20111;-71
2022/01/03 00:44:25;;;;;;;17.92;4.57;;;;;;;9.09;98.98;101043.09;5259534;28;20029;-71
2022/01/03 00:46:57;;;;;;;23.63;5.15;;;;;;;9.19;96.98;101030.88;5263291;28;20123;-71
2022/01/03 00:49:29;;;;;;;18.88;4.97;;;;;;;9.11;98.16;101039.41;5268560;28;20124;-71
2022/01/03 00:52:00;;;;;;;21.17;5.00;;;;;;;9.05;99.32;101044.25;5264758;28;20029;-71
2022/01/03 00:54:32;;;;;;;19.38;4.60;;;;;;;9.10;97.33;101026.19;5263153;28;20036;-71
2022/01/03 00:57:06;;;;;;;21.23;4.97;;;;;;;9.10;97.85;101034.16;5265883;28;20427;-71
2022/01/03 00:59:52;;;;;;;25.15;5.22;;;;;;;9.14;96.30;101027.69;5261186;28;20025;-71
2022/01/03 01:02:28;;;;;;;21.50;5.40;;;;;;;9.10;98.14;101042.16;5257014;28;20079;-71
2022/01/03 01:05:01;;;;;;;22.90;5.53;;;;;;;9.09;98.55;101037.78;5258573;28;20604;-70
2022/01/03 01:07:32;;;;;;;33.08;6.15;;;;;;;9.09;97.66;101043.09;5258084;28;20526;-70
2022/01/03 01:10:06;;;;;;;20.30;5.15;;;;;;;9.06;97.20;101036.19;5255557;28;20053;-70
2022/01/03 01:12:38;;;;;;;21.75;5.15;;;;;;;9.03;99.14;101039.03;5261621;28;20038;-71
2022/01/03 01:15:09;;;;;;;24.95;5.38;;;;;;;9.08;97.96;101044.91;5258178;28;20553;-71
2022/01/03 01:17:42;;;;;;;22.15;5.53;;;;;;;9.14;97.09;101044.50;5257696;28;20153;-71
2022/01/03 01:20:15;;;;;;;18.88;5.35;;;;;;;9.09;98.40;101046.63;5258554;28;20028;-71
2022/01/03 01:22:47;;;;;;;18.20;4.73;;;;;;;9.14;97.04;101031.19;5253031;28;20081;-70
2022/01/03 01:27:51;;;;;;;24.58;5.95;;;;;;;9.09;98.01;101057.28;5252236;28;20392;-70
2022/01/03 01:30:25;;;;;;;20.85;5.22;;;;;;;9.06;98.86;101051.31;5252388;28;20025;-70
2022/01/03 01:33:12;;;;;;;20.83;5.45;;;;;;;9.01;99.27;101062.25;5257956;28;20592;-72
2022/01/03 01:35:57;;;;;;;22.25;6.53;;;;;;;8.96;99.44;101067.03;5255420;28;20506;-71
2022/01/03 01:38:34;;;;;;;18.50;5.22;;;;;;;9.00;98.35;101082.69;5258521;28;20119;-71
2022/01/03 01:41:07;;;;;;;23.27;5.40;;;;;;;8.97;99.62;101080.22;5254867;28;20040;-71
2022/01/03 01:43:41;;;;;;;27.65;5.93;;;;;;;8.95;98.83;101079.47;5255908;28;20329;-71
2022/01/03 01:46:15;;;;;;;23.57;5.63;;;;;;;8.87;100.00;101076.47;5251575;28;20033;-71
2022/01/03 01:48:49;;;;;;;18.30;4.63;;;;;;;8.88;99.77;101087.94;5250588;28;20025;-71
2022/01/03 01:51:24;;;;;;;22.42;5.07;;;;;;;8.82;100.00;101081.22;5252770;28;20028;-70
2022/01/03 01:53:56;;;;;;;23.60;5.47;;;;;;;8.82;99.37;101071.44;5255533;28;20071;-71
2022/01/03 01:56:48;;;;;;;19.58;4.53;;;;;;;8.75;100.00;101074.63;5261443;28;20540;-71
2022/01/03 01:59:25;;;;;;;23.40;4.55;;;;;;;8.71;99.58;101070.44;5257225;28;20190;-70
2022/01/03 02:02:05;;;;;;;20.33;4.82;;;;;;;8.64;100.00;101077.97;5264474;28;20048;-70
2022/01/03 02:04:52;;;;;;;19.55;4.82;;;;;;;8.54;100.00;101074.19;5276588;28;20020;-70
2022/01/03 02:07:37;;;;;;;25.55;4.55;;;;;;;8.50;100.00;101083.31;5262059;28;20035;-71
2022/01/03 02:10:24;;;;;;;25.50;5.15;;;;;;;8.46;100.00;101085.31;5263817;28;20068;-70
2022/01/03 02:12:56;;;;;;;26.23;5.63;;;;;;;8.40;100.00;101086.53;5252623;28;21254;-71
2022/01/03 02:15:31;;;;;;;25.15;5.60;;;;;;;8.44;100.00;101079.25;5258344;28;20116;-70
2022/01/03 02:18:02;;;;;;;24.77;5.00;;;;;;;8.43;100.00;101089.00;5254050;28;20116;-71
2022/01/03 02:20:34;;;;;;;26.45;4.88;;;;;;;8.35;100.00;101085.13;5253390;28;20020;-71
2022/01/03 02:23:05;;;;;;;23.52;4.68;;;;;;;8.34;100.00;101078.09;5262012;28;20032;-71
2022/01/03 02:25:36;;;;;;;22.58;4.40;;;;;;;8.29;100.00;101089.03;5262257;28;20481;-70
2022/01/03 02:28:08;;;;;;;19.75;4.40;;;;;;;8.28;100.00;101092.59;5262462;28;20390;-70
2022/01/03 02:30:39;;;;;;;19.73;4.20;;;;;;;8.24;100.00;101083.13;5254562;28;20921;-70
2022/01/03 02:33:10;;;;;;;17.98;4.25;;;;;;;8.19;100.00;101085.25;5258607;28;20489;-70
2022/01/03 02:35:44;;;;;;;23.83;3.83;;;;;;;8.15;100.00;101078.38;5257010;28;20940;-72
2022/01/03 02:38:15;;;;;;;24.40;5.65;;;;;;;8.13;100.00;101077.63;5257061;28;20116;-70
2022/01/03 02:40:47;;;;;;;18.70;4.10;;;;;;;8.11;100.00;101083.06;5252473;28;20619;-71
2022/01/03 02:43:18;;;;;;;22.42;5.00;;;;;;;8.16;100.00;101086.25;5274382;28;20025;-71
2022/01/03 02:45:49;;;;;;;25.90;5.35;;;;;;;8.17;100.00;101092.44;5250328;28;20029;-71
2022/01/03 02:48:22;;;;;;;22.50;4.68;;;;;;;8.24;100.00;101086.63;5263298;28;20340;-70
2022/01/03 02:50:54;;;;;;;19.83;4.13;;;;;;;8.26;100.00;101086.53;5252059;28;20116;-71
2022/01/03 02:53:26;;;;;;;19.52;4.30;;;;;;;8.27;100.00;101072.31;5257780;28;20040;-70
2022/01/03 02:55:57;;;;;;;25.25;4.50;;;;;;;8.27;100.00;101084.75;5256151;28;20147;-71
2022/01/03 02:58:28;;;;;;;25.48;4.80;;;;;;;8.24;100.00;101091.09;5266851;28;21321;-71
2022/01/03 03:01:00;;;;;;;23.10;5.00;;;;;;;8.24;100.00;101080.47;5252189;28;20028;-70
2022/01/03 03:03:32;;;;;;;21.83;4.57;;;;;;;8.22;100.00;101082.38;5257906;28;20029;-71
2022/01/03 03:06:03;;;;;;;24.70;4.53;;;;;;;8.21;100.00;101081.53;5260595;28;20043;-71
2022/01/03 03:08:34;;;;;;;28.30;4.80;;;;;;;8.26;100.00;101081.22;5254065;28;20039;-71
2022/01/03 03:11:06;;;;;;;23.52;5.68;;;;;;;8.28;100.00;101083.78;5256740;28;20055;-71
2022/01/03 03:13:37;;;;;;;29.35;4.97;;;;;;;8.27;100.00;101090.91;5252164;28;20039;-71
2022/01/03 03:16:08;;;;;;;26.45;4.50;;;;;;;8.22;100.00;101090.34;5256243;28;20079;-70
2022/01/03 03:18:44;;;;;;;24.63;4.80;;;;;;;8.23;100.00;101095.56;5256052;28;20036;-71
2022/01/03 03:21:15;;;;;;;23.92;5.05;;;;;;;8.24;100.00;101083.13;5261773;28;20497;-71
2022/01/03 03:23:46;;;;;;;26.05;5.07;;;;;;;8.20;100.00;101085.13;5259367;28;20024;-71
2022/01/03 03:26:17;;;;;;;25.65;4.55;;;;;;;8.28;100.00;101084.63;5257740;28;20033;-71
2022/01/03 03:28:49;;;;;;;27.77;4.32;;;;;;;8.24;100.00;101089.28;5252859;28;20029;-71
2022/01/03 03:31:20;;;;;;;29.65;5.78;;;;;;;8.29;100.00;101099.66;5264836;28;20131;-71
2022/01/03 03:33:52;;;;;;;21.40;3.80;;;;;;;8.45;100.00;101094.25;5274687;28;20075;-71
2022/01/03 03:36:23;;;;;;;20.25;4.07;;;;;;;8.45;100.00;101086.25;5264652;28;20432;-72
2022/01/03 03:38:54;;;;;;;31.58;4.43;;;;;;;8.55;100.00;101089.19;5269432;28;20375;-70
2022/01/03 03:41:26;;;;;;;23.13;4.45;;;;;;;8.49;100.00;101094.91;5263081;28;20432;-70
2022/01/03 03:43:58;;;;;;;30.55;4.60;;;;;;;8.51;100.00;101088.53;5257508;28;20497;-70
2022/01/03 03:46:29;;;;;;;24.95;4.40;;;;;;;8.53;100.00;101080.44;5267278;28;20036;-71
2022/01/03 03:49:00;;;;;;;26.67;4.60;;;;;;;8.52;100.00;101082.28;5264826;28;20542;-71
2022/01/03 03:51:35;;;;;;;24.30;4.47;;;;;;;8.45;100.00;101088.91;5267158;28;20975;-71
2022/01/03 03:54:06;;;;;;;25.33;3.95;;;;;;;8.37;100.00;101076.09;5265186;28;20040;-70
2022/01/03 03:56:37;;;;;;;21.25;4.82;;;;;;;8.31;100.00;101083.59;5256983;28;20032;-70
2022/01/03 03:59:08;;;;;;;26.88;4.70;;;;;;;8.37;100.00;101083.22;5268479;28;20738;-71
2022/01/03 04:01:40;;;;;;;26.15;4.55;;;;;;;8.30;100.00;101080.06;5279672;28;20024;-70
2022/01/03 04:04:11;;;;;;;23.48;4.30;;;;;;;8.25;100.00;101071.56;5272673;28;20131;-71
2022/01/03 04:06:42;;;;;;;27.52;4.57;;;;;;;8.31;100.00;101086.28;5267211;28;20032;-71
2022/01/03 04:09:14;;;;;;;25.00;4.90;;;;;;;8.33;100.00;101077.22;5279196;28;20036;-71
2022/01/03 04:11:45;;;;;;;24.48;4.55;;;;;;;8.39;100.00;101071.53;5272111;28;20033;-71
2022/01/03 04:14:17;;;;;;;26.10;4.32;;;;;;;8.46;100.00;101068.50;5272590;28;20450;-71
2022/01/03 04:16:48;;;;;;;27.77;5.10;;;;;;;8.49;100.00;101063.00;5256859;28;20020;-72
2022/01/03 04:19:20;;;;;;;28.05;5.00;;;;;;;8.55;100.00;101067.91;5277939;28;20039;-70
2022/01/03 04:21:51;;;;;;;29.13;5.15;;;;;;;8.59;100.00;101064.09;5266708;28;20032;-71
2022/01/03 04:24:22;;;;;;;28.83;5.20;;;;;;;8.59;100.00;101057.00;5272556;28;20033;-70
2022/01/03 04:26:53;;;;;;;22.92;4.30;;;;;;;8.56;100.00;101053.66;5264496;28;20577;-71
2022/01/03 04:29:25;;;;;;;25.77;4.70;;;;;;;8.55;100.00;101051.94;5263894;28;20345;-71
2022/01/03 04:31:57;;;;;;;28.08;5.97;;;;;;;8.54;100.00;101044.94;5263824;28;20028;-71
2022/01/03 04:34:28;;;;;;;24.30;4.72;;;;;;;8.54;100.00;101051.09;5267109;28;20028;-70
2022/01/03 04:36:59;;;;;;;30.63;5.72;;;;;;;8.57;100.00;101050.94;5267804;28;20047;-71
2022/01/03 04:39:31;;;;;;;29.45;5.68;;;;;;;8.61;100.00;101051.56;5267527;28;20028;-71
2022/01/03 04:42:02;;;;;;;24.67;4.57;;;;;;;8.62;100.00;101055.94;5276775;28;20040;-71
2022/01/03 04:44:33;;;;;;;26.38;5.15;;;;;;;8.62;100.00;101053.28;5260122;28;20064;-70
2022/01/03 04:47:05;;;;;;;27.50;5.60;;;;;;;8.65;100.00;101058.41;5261166;28;20032;-70
2022/01/03 04:49:36;;;;;;;23.77;4.45;;;;;;;8.69;100.00;101046.59;5265326;28;20141;-71
2022/01/03 04:52:07;;;;;;;26.30;4.70;;;;;;;8.70;100.00;101050.97;5261542;28;20536;-71
2022/01/03 04:54:39;;;;;;;24.67;5.10;;;;;;;8.70;100.00;101039.47;5264039;28;20032;-70
2022/01/03 04:57:10;;;;;;;27.08;5.13;;;;;;;8.73;100.00;101045.44;5267410;28;20021;-71
2022/01/03 04:59:41;;;;;;;23.80;4.47;;;;;;;8.76;100.00;101057.69;5274030;28;20090;-70
2022/01/03 05:02:12;;;;;;;29.75;5.32;;;;;;;8.77;100.00;101049.59;5257857;28;20031;-71
2022/01/03 05:04:44;;;;;;;28.77;5.15;;;;;;;8.76;100.00;101055.03;5267538;28;20078;-71
2022/01/03 05:07:15;;;;;;;27.52;5.28;;;;;;;8.77;100.00;101046.09;5263014;28;20039;-71
2022/01/03 05:09:46;;;;;;;32.05;7.20;;;;;;;8.80;100.00;101046.75;5263148;28;20032;-70
2022/01/03 05:12:18;;;;;;;26.23;5.45;;;;;;;8.79;100.00;101050.34;5259975;28;20033;-70
2022/01/03 05:14:49;;;;;;;29.02;4.72;;;;;;;8.78;100.00;101046.00;5271751;28;20029;-71
2022/01/03 05:17:20;;;;;;;26.20;4.78;;;;;;;8.81;100.00;101043.13;5263029;28;20045;-71
2022/01/03 05:19:52;;;;;;;26.67;5.28;;;;;;;8.80;100.00;101029.91;5259618;28;20055;-71
2022/01/03 05:22:23;;;;;;;24.80;3.97;;;;;;;8.75;100.00;101035.56;5261634;28;20545;-70
2022/01/03 05:24:54;;;;;;;22.08;4.10;;;;;;;8.73;100.00;101033.97;5270740;28;20028;-71
2022/01/03 05:27:26;;;;;;;29.75;5.13;;;;;;;8.73;100.00;101031.31;5260696;28;20497;-71
2022/01/03 05:29:57;;;;;;;25.45;4.60;;;;;;;8.73;100.00;101034.81;5265309;28;20109;-71
2022/01/03 05:32:28;;;;;;;21.92;4.00;;;;;;;8.74;100.00;101035.66;5272640;28;20032;-70
2022/01/03 05:34:59;;;;;;;25.00;4.25;;;;;;;8.76;100.00;101020.44;5271468;28;20039;-72
2022/01/03 05:37:31;;;;;;;22.10;4.30;;;;;;;8.77;100.00;101025.66;5273673;28;20060;-71
2022/01/03 05:40:04;;;;;;;24.13;5.82;;;;;;;8.78;100.00;101024.72;5264479;28;20040;-70
2022/01/03 05:42:36;;;;;;;18.23;3.92;;;;;;;8.80;100.00;101020.16;5275080;28;20444;-70
2022/01/03 05:45:07;;;;;;;27.55;4.40;;;;;;;8.76;100.00;101018.66;5268198;28;20029;-70
2022/01/03 05:47:40;;;;;;;25.75;4.63;;;;;;;8.76;100.00;101023.97;5272978;28;20029;-71
2022/01/03 05:50:11;;;;;;;27.30;4.72;;;;;;;8.76;100.00;101020.44;5268796;28;20016;-71
2022/01/03 05:52:44;;;;;;;20.92;3.85;;;;;;;8.76;100.00;101009.78;5259909;28;20048;-70
2022/01/03 05:55:15;;;;;;;27.42;4.85;;;;;;;8.75;100.00;101003.63;5265840;28;20040;-71
2022/01/03 05:57:46;;;;;;;26.02;4.40;;;;;;;8.74;100.00;101007.22;5264137;28;20027;-71
2022/01/03 06:00:20;;;;;;;26.65;4.25;;;;;;;8.67;100.00;101000.63;5258790;28;20079;-71
2022/01/03 06:02:57;;;;;;;22.80;4.28;;;;;;;8.64;100.00;100998.16;5258154;28;20132;-71
2022/01/03 06:08:26;;;;;;;22.10;4.13;;;;;;;8.63;100.00;101002.66;5268199;28;20090;-71
2022/01/03 06:10:57;;;;;;;24.40;4.10;;;;;;;8.64;100.00;101007.00;5265397;28;20774;-70
2022/01/03 06:13:29;;;;;;;20.08;3.97;;;;;;;8.63;100.00;100999.97;5266736;28;20390;-70
2022/01/03 06:16:00;;;;;;;26.25;4.10;;;;;;;8.62;100.00;100992.94;5267206;28;20033;-71
2022/01/03 06:18:32;;;;;;;22.05;4.10;;;;;;;8.61;100.00;101003.69;5271100;28;20024;-70
2022/01/03 06:21:03;;;;;;;26.55;4.88;;;;;;;8.58;100.00;101001.22;5268774;28;20040;-71
2022/01/03 06:23:34;;;;;;;20.15;4.40;;;;;;;8.53;100.00;101001.53;5261186;28;20503;-70
2022/01/03 06:26:06;;;;;;;21.80;3.67;;;;;;;8.50;100.00;100995.56;5270044;28;20432;-71
2022/01/03 06:28:37;;;;;;;24.80;3.83;;;;;;;8.52;100.00;101001.66;5267006;28;20071;-71
2022/01/03 06:31:08;;;;;;;17.38;3.42;;;;;;;8.43;100.00;100992.44;5266243;28;20140;-71
2022/01/03 06:33:40;;;;;;;26.10;3.83;;;;;;;8.40;100.00;100993.47;5272509;28;20028;-71
2022/01/03 06:36:12;;;;;;;22.42;4.30;;;;;;;8.40;100.00;100989.97;5265153;28;20032;-71
2022/01/03 06:38:43;;;;;;;23.38;3.55;;;;;;;8.40;100.00;100990.81;5270312;28;20024;-70
2022/01/03 06:41:15;;;;;;;21.35;4.30;;;;;;;8.43;100.00;100998.59;5263345;28;20033;-71
2022/01/03 06:43:46;;;;;;;19.77;3.72;;;;;;;8.41;100.00;101007.63;5268650;28;20048;-71
2022/01/03 06:46:18;;;;;;;22.55;4.47;;;;;;;8.35;100.00;100997.38;5265158;28;20109;-71
2022/01/03 06:48:49;;;;;;;24.42;3.88;;;;;;;8.32;100.00;100998.44;5263239;28;20024;-71
2022/01/03 06:51:20;;;;;;;19.95;3.92;;;;;;;8.30;100.00;100989.69;5267278;28;20025;-71
2022/01/03 06:53:51;;;;;;;17.13;3.60;;;;;;;8.32;100.00;100987.81;5269827;28;20043;-71
2022/01/03 06:56:23;;;;;;;16.25;3.42;;;;;;;8.28;100.00;100988.09;5269258;28;20025;-71
2022/01/03 06:58:54;;;;;;;22.10;4.25;;;;;;;8.33;100.00;100994.81;5259822;28;20094;-71
2022/01/03 07:01:25;;;;;;;18.48;3.63;;;;;;;8.28;100.00;100993.41;5266338;28;20082;-72
2022/01/03 07:03:57;;;;;;;20.20;4.45;;;;;;;8.27;100.00;100997.88;5258566;28;20033;-71
2022/01/03 07:06:28;;;;;;;19.08;3.67;;;;;;;8.28;100.00;100994.25;5266860;28;20115;-71
2022/01/03 07:08:59;;;;;;;15.93;3.40;;;;;;;8.25;100.00;100982.03;5267724;28;20472;-71
2022/01/03 07:11:31;;;;;;;23.88;4.00;;;;;;;8.24;100.00;100987.44;5270928;28;20067;-71
2022/01/03 07:19:51;;;;;;;22.73;3.75;;;;;;;8.27;100.00;100986.41;5273368;28;20032;-71
2022/01/03 07:22:26;;;;;;;18.15;3.20;;;;;;;8.27;100.00;100983.75;5260758;28;20064;-71
2022/01/03 07:24:58;;;;;;;21.60;4.25;;;;;;;8.28;100.00;100975.66;5270615;28;20463;-71
2022/01/03 07:27:29;;;;;;;18.20;3.65;;;;;;;8.31;100.00;100986.09;5262632;28;20501;-71
2022/01/03 07:30:00;;;;;;;17.92;3.17;;;;;;;8.24;100.00;100979.47;5277397;28;20029;-71
2022/01/03 07:32:32;;;;;;;21.80;4.30;;;;;;;8.19;100.00;100985.09;5270505;28;20029;-71
2022/01/03 07:35:03;;;;;;;19.10;3.25;;;;;;;8.13;100.00;100985.47;5273214;28;20065;-71
2022/01/03 07:37:35;;;;;;;24.05;4.07;;;;;;;8.09;100.00;100994.56;5268866;28;20055;-72
2022/01/03 07:40:07;;;;;;;21.40;4.28;;;;;;;8.08;100.00;100990.22;5277996;28;20386;-71
2022/01/03 07:42:40;;;;;;;18.08;3.85;;;;;;;8.12;100.00;100985.56;5274100;28;20043;-71
2022/01/03 07:45:12;;;;;;;19.45;3.75;;;;;;;8.09;100.00;100991.91;5273439;28;20024;-71
2022/01/03 07:47:43;;;;;;;22.27;3.83;;;;;;;8.14;100.00;100989.00;5277397;28;20063;-71
2022/01/03 07:50:15;;;;;;;16.27;4.03;;;;;;;8.18;100.00;100990.50;5266210;28;20101;-71
2022/01/03 07:52:46;;;;;;;24.73;4.53;;;;;;;8.24;100.00;100998.91;5275734;28;20029;-71
2022/01/03 07:55:19;;;;;;;18.27;3.13;;;;;;;8.25;100.00;100999.78;5274340;28;20529;-71
2022/01/03 07:57:50;;;;;;;18.83;3.80;;;;;;;8.29;100.00;101006.59;5272120;28;20032;-72
2022/01/03 08:00:22;;;;;;;22.98;3.85;;;;;;;8.29;100.00;101011.94;5267952;28;20082;-71
2022/01/03 08:02:53;;;;;;;22.60;4.40;;;;;;;8.33;100.00;101010.78;5273475;28;20037;-72
2022/01/03 08:05:24;;;;;;;26.77;4.90;;;;;;;8.36;100.00;101002.59;5266099;28;20044;-71
2022/01/03 08:07:55;;;;;;;19.13;3.75;;;;;;;8.39;100.00;100997.06;5266898;28;20040;-71
2022/01/03 08:10:27;;;;;;;21.63;4.20;;;;;;;8.41;100.00;100996.97;5268283;28;20058;-71
2022/01/03 08:12:58;;;;;;;23.00;4.82;;;;;;;8.36;100.00;101001.72;5279130;28;20033;-71
2022/01/03 08:15:29;;;;;;;17.48;3.78;;;;;;;8.35;100.00;101008.88;5266005;28;20034;-72
2022/01/03 08:18:01;;;;;;;21.52;4.05;;;;;;;8.34;100.00;101007.19;5261172;28;20103;-71
2022/01/03 08:20:32;;;;;;;19.75;3.78;;;;;;;8.32;100.00;101003.75;5274010;28;20024;-71
2022/01/03 08:23:04;;;;;;;19.58;3.78;;;;;;;8.35;100.00;100998.22;5276167;28;20028;-71
2022/01/03 08:25:37;;;;;;;18.17;4.07;;;;;;;8.39;100.00;100999.72;5270832;28;20440;-71
2022/01/03 08:28:10;;;;;;;20.52;4.10;;;;;;;8.38;100.00;100998.03;5267799;28;20534;-71
2022/01/03 08:30:42;;;;;;;20.75;3.85;;;;;;;8.44;100.00;100997.66;5274565;28;20413;-71
2022/01/03 08:33:13;;;;;;;18.52;3.35;;;;;;;8.47;100.00;100993.09;5271100;28;20039;-71
2022/01/03 08:35:44;;;;;;;19.85;3.83;;;;;;;8.52;100.00;100981.22;5270788;28;20028;-71
2022/01/03 08:38:16;;;;;;;22.15;4.43;;;;;;;8.53;100.00;100990.03;5262733;28;20070;-71
2022/01/03 08:40:47;;;;;;;19.88;3.35;;;;;;;8.55;100.00;100996.09;5271064;28;20032;-71
2022/01/03 08:43:19;;;;;;;18.80;3.70;;;;;;;8.59;100.00;100985.19;5271319;28;20028;-71
2022/01/03 08:45:50;;;;;;;20.38;3.90;;;;;;;8.61;100.00;100985.06;5276413;28;20413;-71
2022/01/03 08:48:22;;;;;;;17.25;4.03;;;;;;;8.61;100.00;100985.06;5273801;28;20088;-71
2022/01/03 08:50:53;;;;;;;23.58;3.72;;;;;;;8.64;100.00;100992.84;5270938;28;20071;-71
2022/01/03 08:53:27;;;;;;;18.98;3.80;;;;;;;8.70;100.00;101007.56;5266789;28;20036;-72
2022/01/03 08:55:58;;;;;;;23.23;4.30;;;;;;;8.71;100.00;101014.59;5272715;28;20036;-71
2022/01/03 08:58:30;;;;;;;21.55;4.07;;;;;;;8.69;100.00;101004.03;5261974;28;20048;-71
2022/01/03 09:01:02;;;;;;;15.98;3.35;;;;;;;8.72;100.00;101021.59;5261520;28;20024;-71
2022/01/03 09:03:33;;;;;;;21.10;4.30;;;;;;;8.74;100.00;101015.22;5273906;28;20565;-71
2022/01/03 09:06:05;;;;;;;18.58;4.43;;;;;;;8.80;100.00;101022.81;5271113;28;20028;-71
2022/01/03 09:08:36;;;;;;;18.42;3.55;;;;;;;8.88;100.00;101010.78;5271921;28;20044;-71
2022/01/03 09:11:08;;;;;;;22.85;4.00;;;;;;;8.92;100.00;101012.31;5272717;28;20162;-71
2022/01/03 09:13:40;;;;;;;18.80;3.47;;;;;;;9.03;100.00;101009.75;5275255;28;20435;-71
2022/01/03 09:16:11;;;;;;;15.77;3.60;;;;;;;9.07;100.00;101015.72;5274880;28;20332;-71
2022/01/03 09:18:43;;;;;;;20.58;3.80;;;;;;;9.13;100.00;101002.03;5275178;28;20032;-72
2022/01/03 09:21:14;;;;;;;19.08;3.80;;;;;;;9.17;100.00;101007.03;5273814;28;20465;-71
2022/01/03 09:23:50;;;;;;;25.25;3.60;;;;;;;9.18;100.00;101013.19;5273491;28;20024;-71
2022/01/03 09:29:11;;;;;;;19.98;3.63;;;;;;;9.21;100.00;101008.53;5275378;28;20044;-71
2022/01/03 09:31:42;;;;;;;18.20;3.80;;;;;;;9.23;100.00;101009.25;5271956;28;20064;-71
2022/01/03 09:34:13;;;;;;;17.58;3.53;;;;;;;9.25;100.00;100989.69;5270248;28;20471;-71
2022/01/03 09:36:45;;;;;;;16.23;3.47;;;;;;;9.28;100.00;100976.16;5273750;28;20542;-71
2022/01/03 09:39:16;;;;;;;19.23;3.50;;;;;;;9.26;100.00;100975.41;5274139;28;20024;-71
2022/01/03 09:42:02;;;;;;;21.77;3.75;;;;;;;9.27;100.00;100971.78;5269318;28;20039;-71
2022/01/03 09:44:35;;;;;;;15.57;3.42;;;;;;;9.26;100.00;100975.41;5273683;28;20111;-71
2022/01/03 09:47:10;;;;;;;24.83;4.65;;;;;;;9.27;100.00;100985.94;5270179;28;20024;-71
2022/01/03 09:49:41;;;;;;;21.98;3.88;;;;;;;9.29;100.00;100978.72;5270220;28;20037;-71
2022/01/03 09:52:14;;;;;;;19.63;3.85;;;;;;;9.31;100.00;100975.94;5274527;28;20029;-71
2022/01/03 09:54:46;;;;;;;22.52;3.67;;;;;;;9.32;100.00;100981.16;5272010;28;20029;-71
2022/01/03 09:57:21;;;;;;;19.90;4.45;;;;;;;9.35;100.00;100980.09;5273633;28;20055;-71
2022/01/03 09:59:53;;;;;;;27.70;4.20;;;;;;;9.30;100.00;100979.56;5273124;28;20577;-71
2022/01/03 10:02:25;;;;;;;23.33;4.05;;;;;;;9.28;100.00;100978.81;5269782;28;20083;-71
2022/01/03 10:04:56;;;;;;;20.88;3.72;;;;;;;9.23;99.97;100982.63;5272450;28;20115;-71
2022/01/03 10:07:28;;;;;;;22.95;4.55;;;;;;;9.22;100.00;100983.63;5271326;28;20127;-71
2022/01/03 10:10:00;;;;;;;19.60;3.95;;;;;;;9.22;100.00;100975.63;5271808;28;20115;-70
2022/01/03 10:12:31;;;;;;;19.55;3.70;;;;;;;9.22;100.00;100970.31;5274524;28;20033;-71
2022/01/03 10:15:05;;;;;;;18.85;4.38;;;;;;;9.25;100.00;100971.91;5273555;28;20103;-71
2022/01/03 10:17:38;;;;;;;25.77;3.90;;;;;;;9.30;100.00;100971.56;5270238;28;20032;-71
2022/01/03 10:20:12;;;;;;;20.85;3.97;;;;;;;9.36;100.00;100971.16;5275917;28;20436;-71
2022/01/03 10:22:43;;;;;;;18.20;3.72;;;;;;;9.45;100.00;100978.47;5270588;28;20048;-71
2022/01/03 10:25:15;;;;;;;16.98;3.78;;;;;;;9.52;99.86;100986.91;5271110;28;20127;-71
2022/01/03 10:27:55;;;;;;;21.88;3.72;;;;;;;9.55;100.00;100973.38;5269605;28;20024;-71
2022/01/03 10:30:42;;;;;;;20.30;4.25;;;;;;;9.61;100.00;100968.47;5269669;28;20020;-71
2022/01/03 10:33:22;;;;;;;18.67;4.15;;;;;;;9.67;100.00;100974.34;5270734;28;20040;-71
2022/01/03 10:35:58;;;;;;;20.85;4.07;;;;;;;9.68;98.81;100973.38;5272539;28;20074;-71
2022/01/03 10:38:36;;;;;;;17.50;3.75;;;;;;;9.70;98.72;100963.44;5269154;28;20020;-71
2022/01/03 10:41:10;;;;;;;15.52;4.32;;;;;;;9.72;99.18;100959.72;5265770;28;20032;-71
2022/01/03 10:43:53;;;;;;;20.80;4.18;;;;;;;9.74;98.43;100944.50;5272491;28;20742;-71
2022/01/03 10:46:29;;;;;;;19.20;3.55;;;;;;;9.84;98.72;100950.00;5273555;28;20085;-71
2022/01/03 10:49:12;;;;;;;15.30;3.15;;;;;;;9.92;98.51;100944.13;5272428;28;20393;-71
2022/01/03 10:51:44;;;;;;;21.55;3.47;;;;;;;9.92;97.98;100941.47;5264507;28;20043;-71
2022/01/03 10:54:18;;;;;;;14.88;3.25;;;;;;;9.93;96.68;100933.34;5268943;28;20036;-71
2022/01/03 10:56:50;;;;;;;26.50;4.93;;;;;;;9.94;96.89;100924.38;5272155;28;20031;-71
2022/01/03 10:59:25;;;;;;;23.00;3.95;;;;;;;9.99;97.07;100922.25;5272504;28;20056;-71
2022/01/03 11:01:56;;;;;;;16.13;3.30;;;;;;;10.02;97.54;100924.66;5272793;28;20066;-70
2022/01/03 11:04:36;;;;;;;19.50;3.67;;;;;;;10.06;96.06;100916.47;5272655;28;20032;-71
2022/01/03 11:13:15;;;;;;;16.45;3.50;;;;;;;10.12;96.93;100900.00;5267357;28;20040;-70
2022/01/03 11:15:58;;;;;;;22.73;3.55;;;;;;;10.18;96.55;100904.88;5273118;28;20028;-71
2022/01/03 11:18:38;;;;;;;13.85;3.25;;;;;;;10.23;95.79;100907.22;5277342;28;20025;-71
2022/01/03 11:21:14;;;;;;;19.42;3.45;;;;;;;10.24;94.61;100901.78;5275496;28;20121;-71
2022/01/03 11:24:11;;;;;;;19.15;3.58;;;;;;;10.26;95.65;100894.50;5275287;28;20029;-71
2022/01/03 11:26:48;;;;;;;19.98;4.00;;;;;;;10.24;95.63;100887.56;5274873;28;20086;-70
2022/01/03 11:29:19;;;;;;;15.85;3.70;;;;;;;10.33;96.36;100894.94;5271496;28;20025;-71
2022/01/03 11:31:53;;;;;;;17.95;3.70;;;;;;;10.37;94.79;100891.94;5271193;28;20061;-71
2022/01/03 11:34:25;;;;;;;;;;;;;;;10.45;98.10;100893.16;5263757;28;20045;-71
2022/01/03 11:36:57;;;;;;;16.83;3.40;;;;;;;10.32;92.98;100883.41;5261761;28;19946;-71
2022/01/03 11:39:32;;;;;;;20.65;4.03;;;;;;;10.28;93.81;100889.91;5261827;28;20054;-71
2022/01/03 11:42:03;;;;;;;16.60;3.67;;;;;;;10.18;94.44;100887.09;5262724;28;20455;-71
2022/01/03 11:44:35;;;;;;;17.38;4.78;;;;;;;10.12;93.22;100881.34;5260349;28;20135;-71
2022/01/03 11:47:08;;;;;;;21.23;4.80;;;;;;;10.01;94.98;100880.34;5262533;28;20098;-71
2022/01/03 11:49:40;;;;;;;16.40;3.78;;;;;;;9.94;95.13;100875.56;5269668;28;20027;-71
2022/01/03 11:52:15;;;;;;;17.08;3.47;;;;;;;9.87;95.74;100853.81;5273273;28;21949;-71
2022/01/03 11:54:49;;;;;;;20.60;4.45;;;;;;;9.82;96.63;100858.66;5273886;28;20032;-71
2022/01/03 12:06:08;;;;;;;16.15;3.67;;;;;;;9.75;97.66;100836.09;5266240;28;20033;-71
2022/01/03 12:08:40;;;;;;;20.05;5.53;;;;;;;9.78;96.52;100842.03;5269604;28;20017;-71
2022/01/03 12:11:20;;;;;;;15.32;3.67;;;;;;;9.81;96.84;100827.63;5271266;28;20066;-71
2022/01/03 12:13:56;;;;;;;13.35;3.58;;;;;;;9.86;96.20;100836.16;5268031;28;20036;-71